sensor_id;sensor_type;location;lat;lon;timestamp;P1;durP1;ratioP1;P2;durP2;ratioP2
28653;SDS011;24320;56.980;24.336;2022-11-20T00:01:16;5.32;;;2.88;;
28653;SDS011;24320;56.980;24.336;2022-11-20T00:03:45;5.35;;;2.17;;
28653;SDS011;24320;56.980;24.336;2022-11-20T00:06:13;4.97;;;2.58;;
28653;SDS011;24320;56.980;24.336;2022-11-20T00:08:42;4.50;;;2.80;;
28653;SDS011;24320;56.980;24.336;2022-11-20T00:11:11;5.30;;;2.90;;
28653;SDS011;24320;56.980;24.336;2022-11-20T00:13:42;4.65;;;2.40;;
28653;SDS011;24320;56.980;24.336;2022-11-20T00:16:10;5.82;;;2.40;;
28653;SDS011;24320;56.980;24.336;2022-11-20T00:18:38;6.53;;;2.72;;
28653;SDS011;24320;56.980;24.336;2022-11-20T00:21:07;4.57;;;2.75;;
28653;SDS011;24320;56.980;24.336;2022-11-20T00:23:36;4.82;;;2.75;;
28653;SDS011;24320;56.980;24.336;2022-11-20T00:26:04;6.53;;;2.85;;
28653;SDS011;24320;56.980;24.336;2022-11-20T00:28:32;9.30;;;3.15;;
28653;SDS011;24320;56.980;24.336;2022-11-20T00:31:01;6.53;;;3.28;;
28653;SDS011;24320;56.980;24.336;2022-11-20T00:33:32;4.75;;;2.72;;
28653;SDS011;24320;56.980;24.336;2022-11-20T00:36:01;5.32;;;2.50;;
28653;SDS011;24320;56.980;24.336;2022-11-20T00:38:30;5.78;;;3.17;;
28653;SDS011;24320;56.980;24.336;2022-11-20T00:40:58;6.82;;;3.13;;
28653;SDS011;24320;56.980;24.336;2022-11-20T00:43:27;5.32;;;2.85;;
28653;SDS011;24320;56.980;24.336;2022-11-20T00:45:57;4.00;;;2.38;;
28653;SDS011;24320;56.980;24.336;2022-11-20T00:48:24;4.75;;;2.45;;
28653;SDS011;24320;56.980;24.336;2022-11-20T00:50:52;4.47;;;1.95;;
28653;SDS011;24320;56.980;24.336;2022-11-20T00:53:19;3.17;;;1.92;;
28653;SDS011;24320;56.980;24.336;2022-11-20T00:55:56;2.40;;;1.50;;
28653;SDS011;24320;56.980;24.336;2022-11-20T00:58:25;3.67;;;1.70;;
28653;SDS011;24320;56.980;24.336;2022-11-20T01:01:03;3.38;;;1.92;;
28653;SDS011;24320;56.980;24.336;2022-11-20T01:03:39;3.83;;;2.20;;
28653;SDS011;24320;56.980;24.336;2022-11-20T01:06:09;3.35;;;2.00;;
28653;SDS011;24320;56.980;24.336;2022-11-20T01:08:41;3.45;;;2.00;;
28653;SDS011;24320;56.980;24.336;2022-11-20T01:11:10;3.70;;;2.30;;
28653;SDS011;24320;56.980;24.336;2022-11-20T01:13:39;6.93;;;2.07;;
28653;SDS011;24320;56.980;24.336;2022-11-20T01:16:09;2.70;;;2.03;;
28653;SDS011;24320;56.980;24.336;2022-11-20T01:18:37;3.58;;;2.05;;
28653;SDS011;24320;56.980;24.336;2022-11-20T01:21:06;4.63;;;1.98;;
28653;SDS011;24320;56.980;24.336;2022-11-20T01:23:37;3.67;;;2.00;;
28653;SDS011;24320;56.980;24.336;2022-11-20T01:26:06;3.45;;;2.33;;
28653;SDS011;24320;56.980;24.336;2022-11-20T01:28:36;3.97;;;1.83;;
28653;SDS011;24320;56.980;24.336;2022-11-20T01:31:11;6.28;;;2.45;;
28653;SDS011;24320;56.980;24.336;2022-11-20T01:33:40;3.45;;;2.08;;
28653;SDS011;24320;56.980;24.336;2022-11-20T01:36:09;3.70;;;2.33;;
28653;SDS011;24320;56.980;24.336;2022-11-20T01:38:36;3.05;;;1.92;;
28653;SDS011;24320;56.980;24.336;2022-11-20T01:41:04;4.50;;;2.58;;
28653;SDS011;24320;56.980;24.336;2022-11-20T01:43:31;4.57;;;2.33;;
28653;SDS011;24320;56.980;24.336;2022-11-20T01:48:38;5.07;;;2.45;;
28653;SDS011;24320;56.980;24.336;2022-11-20T01:51:12;6.85;;;2.40;;
28653;SDS011;24320;56.980;24.336;2022-11-20T01:53:50;3.90;;;1.90;;
28653;SDS011;24320;56.980;24.336;2022-11-20T01:56:20;6.30;;;1.77;;
28653;SDS011;24320;56.980;24.336;2022-11-20T01:58:50;4.53;;;2.28;;
28653;SDS011;24320;56.980;24.336;2022-11-20T02:01:20;3.40;;;2.15;;
28653;SDS011;24320;56.980;24.336;2022-11-20T02:03:48;8.13;;;2.47;;
28653;SDS011;24320;56.980;24.336;2022-11-20T02:09:26;5.20;;;2.95;;
28653;SDS011;24320;56.980;24.336;2022-11-20T02:11:54;3.95;;;2.55;;
28653;SDS011;24320;56.980;24.336;2022-11-20T02:14:22;4.97;;;2.50;;
28653;SDS011;24320;56.980;24.336;2022-11-20T02:16:49;5.93;;;2.80;;
28653;SDS011;24320;56.980;24.336;2022-11-20T02:24:26;8.05;;;2.80;;
28653;SDS011;24320;56.980;24.336;2022-11-20T02:26:57;5.65;;;2.20;;
28653;SDS011;24320;56.980;24.336;2022-11-20T02:32:03;5.15;;;2.00;;
28653;SDS011;24320;56.980;24.336;2022-11-20T02:34:30;5.28;;;2.72;;
28653;SDS011;24320;56.980;24.336;2022-11-20T02:36:57;3.50;;;2.50;;
28653;SDS011;24320;56.980;24.336;2022-11-20T02:39:26;5.30;;;2.72;;
28653;SDS011;24320;56.980;24.336;2022-11-20T02:41:54;5.35;;;3.10;;
28653;SDS011;24320;56.980;24.336;2022-11-20T02:44:23;5.43;;;2.97;;
28653;SDS011;24320;56.980;24.336;2022-11-20T02:46:50;7.68;;;3.55;;
28653;SDS011;24320;56.980;24.336;2022-11-20T02:49:17;6.53;;;3.53;;
28653;SDS011;24320;56.980;24.336;2022-11-20T02:51:44;5.90;;;3.88;;
28653;SDS011;24320;56.980;24.336;2022-11-20T02:54:11;8.13;;;3.75;;
28653;SDS011;24320;56.980;24.336;2022-11-20T02:56:38;8.20;;;3.60;;
28653;SDS011;24320;56.980;24.336;2022-11-20T02:59:05;6.85;;;3.78;;
28653;SDS011;24320;56.980;24.336;2022-11-20T03:01:33;6.80;;;3.60;;
28653;SDS011;24320;56.980;24.336;2022-11-20T03:04:00;5.72;;;2.90;;
28653;SDS011;24320;56.980;24.336;2022-11-20T03:06:28;7.07;;;3.63;;
28653;SDS011;24320;56.980;24.336;2022-11-20T03:08:55;9.27;;;3.70;;
28653;SDS011;24320;56.980;24.336;2022-11-20T03:11:21;9.48;;;4.43;;
28653;SDS011;24320;56.980;24.336;2022-11-20T03:13:48;5.70;;;3.63;;
28653;SDS011;24320;56.980;24.336;2022-11-20T03:16:16;8.75;;;3.95;;
28653;SDS011;24320;56.980;24.336;2022-11-20T03:18:46;7.10;;;3.63;;
28653;SDS011;24320;56.980;24.336;2022-11-20T03:21:13;7.35;;;4.13;;
28653;SDS011;24320;56.980;24.336;2022-11-20T03:23:41;8.02;;;4.22;;
28653;SDS011;24320;56.980;24.336;2022-11-20T03:26:13;8.25;;;3.60;;
28653;SDS011;24320;56.980;24.336;2022-11-20T03:28:46;8.30;;;4.40;;
28653;SDS011;24320;56.980;24.336;2022-11-20T03:31:15;8.85;;;4.00;;
28653;SDS011;24320;56.980;24.336;2022-11-20T03:33:43;6.45;;;3.58;;
28653;SDS011;24320;56.980;24.336;2022-11-20T03:36:11;8.68;;;4.60;;
28653;SDS011;24320;56.980;24.336;2022-11-20T03:38:40;8.70;;;4.03;;
28653;SDS011;24320;56.980;24.336;2022-11-20T03:41:08;8.57;;;4.20;;
28653;SDS011;24320;56.980;24.336;2022-11-20T03:43:37;5.03;;;2.83;;
28653;SDS011;24320;56.980;24.336;2022-11-20T03:46:05;9.23;;;4.40;;
28653;SDS011;24320;56.980;24.336;2022-11-20T03:48:32;7.95;;;4.70;;
28653;SDS011;24320;56.980;24.336;2022-11-20T03:51:06;6.80;;;3.25;;
28653;SDS011;24320;56.980;24.336;2022-11-20T03:53:37;10.05;;;4.25;;
28653;SDS011;24320;56.980;24.336;2022-11-20T03:56:05;7.20;;;4.32;;
28653;SDS011;24320;56.980;24.336;2022-11-20T03:58:33;7.53;;;3.85;;
28653;SDS011;24320;56.980;24.336;2022-11-20T04:01:06;8.75;;;4.50;;
28653;SDS011;24320;56.980;24.336;2022-11-20T04:03:34;10.60;;;4.50;;
28653;SDS011;24320;56.980;24.336;2022-11-20T04:06:05;9.85;;;4.28;;
28653;SDS011;24320;56.980;24.336;2022-11-20T04:08:35;9.18;;;4.20;;
28653;SDS011;24320;56.980;24.336;2022-11-20T04:11:09;8.45;;;4.18;;
28653;SDS011;24320;56.980;24.336;2022-11-20T04:13:36;8.50;;;4.55;;
28653;SDS011;24320;56.980;24.336;2022-11-20T04:16:04;7.63;;;4.10;;
28653;SDS011;24320;56.980;24.336;2022-11-20T04:18:33;6.32;;;3.70;;
28653;SDS011;24320;56.980;24.336;2022-11-20T04:21:00;9.93;;;4.43;;
28653;SDS011;24320;56.980;24.336;2022-11-20T04:23:27;10.73;;;4.78;;
28653;SDS011;24320;56.980;24.336;2022-11-20T04:25:54;8.45;;;3.95;;
28653;SDS011;24320;56.980;24.336;2022-11-20T04:28:21;8.73;;;4.38;;
28653;SDS011;24320;56.980;24.336;2022-11-20T04:30:48;8.10;;;4.30;;
28653;SDS011;24320;56.980;24.336;2022-11-20T04:33:15;12.13;;;4.80;;
28653;SDS011;24320;56.980;24.336;2022-11-20T04:35:42;10.02;;;4.60;;
28653;SDS011;24320;56.980;24.336;2022-11-20T04:38:10;8.45;;;4.13;;
28653;SDS011;24320;56.980;24.336;2022-11-20T04:40:37;9.43;;;4.53;;
28653;SDS011;24320;56.980;24.336;2022-11-20T04:43:04;9.35;;;4.60;;
28653;SDS011;24320;56.980;24.336;2022-11-20T04:45:31;6.75;;;3.97;;
28653;SDS011;24320;56.980;24.336;2022-11-20T04:47:58;11.35;;;4.68;;
28653;SDS011;24320;56.980;24.336;2022-11-20T04:50:25;13.02;;;5.03;;
28653;SDS011;24320;56.980;24.336;2022-11-20T04:52:52;8.32;;;4.18;;
28653;SDS011;24320;56.980;24.336;2022-11-20T04:55:19;8.45;;;4.70;;
28653;SDS011;24320;56.980;24.336;2022-11-20T04:57:49;9.52;;;4.47;;
28653;SDS011;24320;56.980;24.336;2022-11-20T05:02:43;10.25;;;4.00;;
28653;SDS011;24320;56.980;24.336;2022-11-20T05:05:10;9.60;;;4.43;;
28653;SDS011;24320;56.980;24.336;2022-11-20T05:07:37;11.32;;;4.55;;
28653;SDS011;24320;56.980;24.336;2022-11-20T05:10:04;9.80;;;4.95;;
28653;SDS011;24320;56.980;24.336;2022-11-20T05:12:32;10.32;;;4.72;;
28653;SDS011;24320;56.980;24.336;2022-11-20T05:14:59;9.75;;;4.57;;
28653;SDS011;24320;56.980;24.336;2022-11-20T05:17:26;11.38;;;5.03;;
28653;SDS011;24320;56.980;24.336;2022-11-20T05:19:53;8.70;;;4.70;;
28653;SDS011;24320;56.980;24.336;2022-11-20T05:22:20;14.43;;;4.80;;
28653;SDS011;24320;56.980;24.336;2022-11-20T05:24:47;9.82;;;4.95;;
28653;SDS011;24320;56.980;24.336;2022-11-20T05:27:14;14.30;;;6.20;;
28653;SDS011;24320;56.980;24.336;2022-11-20T05:29:40;8.60;;;4.82;;
28653;SDS011;24320;56.980;24.336;2022-11-20T05:32:07;13.15;;;4.97;;
28653;SDS011;24320;56.980;24.336;2022-11-20T05:34:35;10.38;;;4.45;;
28653;SDS011;24320;56.980;24.336;2022-11-20T05:37:02;12.30;;;4.65;;
28653;SDS011;24320;56.980;24.336;2022-11-20T05:39:29;8.40;;;4.00;;
28653;SDS011;24320;56.980;24.336;2022-11-20T05:41:56;7.78;;;4.38;;
28653;SDS011;24320;56.980;24.336;2022-11-20T05:44:42;11.68;;;3.67;;
28653;SDS011;24320;56.980;24.336;2022-11-20T05:47:09;9.35;;;4.03;;
28653;SDS011;24320;56.980;24.336;2022-11-20T05:49:36;9.60;;;3.80;;
28653;SDS011;24320;56.980;24.336;2022-11-20T05:52:03;8.35;;;3.65;;
28653;SDS011;24320;56.980;24.336;2022-11-20T05:54:30;8.13;;;4.57;;
28653;SDS011;24320;56.980;24.336;2022-11-20T05:56:57;11.30;;;4.47;;
28653;SDS011;24320;56.980;24.336;2022-11-20T05:59:24;8.63;;;4.25;;
28653;SDS011;24320;56.980;24.336;2022-11-20T06:01:50;9.77;;;5.15;;
28653;SDS011;24320;56.980;24.336;2022-11-20T06:04:17;9.80;;;4.28;;
28653;SDS011;24320;56.980;24.336;2022-11-20T06:06:44;6.13;;;3.63;;
28653;SDS011;24320;56.980;24.336;2022-11-20T06:09:11;10.98;;;4.93;;
28653;SDS011;24320;56.980;24.336;2022-11-20T06:11:38;6.55;;;3.55;;
28653;SDS011;24320;56.980;24.336;2022-11-20T06:14:05;6.07;;;3.17;;
28653;SDS011;24320;56.980;24.336;2022-11-20T06:16:32;10.20;;;5.18;;
28653;SDS011;24320;56.980;24.336;2022-11-20T06:18:59;8.55;;;4.15;;
28653;SDS011;24320;56.980;24.336;2022-11-20T06:21:26;9.27;;;4.45;;
28653;SDS011;24320;56.980;24.336;2022-11-20T06:23:53;8.27;;;4.32;;
28653;SDS011;24320;56.980;24.336;2022-11-20T06:26:22;11.90;;;4.55;;
28653;SDS011;24320;56.980;24.336;2022-11-20T06:28:50;9.05;;;4.20;;
28653;SDS011;24320;56.980;24.336;2022-11-20T06:31:19;9.20;;;4.07;;
28653;SDS011;24320;56.980;24.336;2022-11-20T06:33:47;9.68;;;4.97;;
28653;SDS011;24320;56.980;24.336;2022-11-20T06:36:15;10.30;;;5.40;;
28653;SDS011;24320;56.980;24.336;2022-11-20T06:38:44;10.30;;;4.97;;
28653;SDS011;24320;56.980;24.336;2022-11-20T06:41:12;7.55;;;3.20;;
28653;SDS011;24320;56.980;24.336;2022-11-20T06:43:41;9.93;;;4.43;;
28653;SDS011;24320;56.980;24.336;2022-11-20T06:46:09;10.98;;;4.70;;
28653;SDS011;24320;56.980;24.336;2022-11-20T06:48:37;9.77;;;4.32;;
28653;SDS011;24320;56.980;24.336;2022-11-20T06:51:05;8.45;;;4.53;;
28653;SDS011;24320;56.980;24.336;2022-11-20T06:53:33;12.23;;;4.88;;
28653;SDS011;24320;56.980;24.336;2022-11-20T06:56:01;8.98;;;4.95;;
28653;SDS011;24320;56.980;24.336;2022-11-20T06:58:29;10.93;;;5.18;;
28653;SDS011;24320;56.980;24.336;2022-11-20T07:00:58;9.50;;;5.00;;
28653;SDS011;24320;56.980;24.336;2022-11-20T07:03:26;9.73;;;4.88;;
28653;SDS011;24320;56.980;24.336;2022-11-20T07:05:57;14.27;;;6.13;;
28653;SDS011;24320;56.980;24.336;2022-11-20T07:08:24;13.85;;;5.38;;
28653;SDS011;24320;56.980;24.336;2022-11-20T07:10:52;14.27;;;6.30;;
28653;SDS011;24320;56.980;24.336;2022-11-20T07:13:19;16.27;;;6.97;;
28653;SDS011;24320;56.980;24.336;2022-11-20T07:15:46;20.27;;;8.35;;
28653;SDS011;24320;56.980;24.336;2022-11-20T07:18:13;12.95;;;6.63;;
28653;SDS011;24320;56.980;24.336;2022-11-20T07:20:40;12.63;;;5.20;;
28653;SDS011;24320;56.980;24.336;2022-11-20T07:23:07;12.35;;;5.35;;
28653;SDS011;24320;56.980;24.336;2022-11-20T07:25:34;18.00;;;5.82;;
28653;SDS011;24320;56.980;24.336;2022-11-20T07:28:02;14.15;;;5.97;;
28653;SDS011;24320;56.980;24.336;2022-11-20T07:30:29;13.85;;;6.50;;
28653;SDS011;24320;56.980;24.336;2022-11-20T07:32:57;14.75;;;5.85;;
28653;SDS011;24320;56.980;24.336;2022-11-20T07:35:24;11.30;;;5.72;;
28653;SDS011;24320;56.980;24.336;2022-11-20T07:37:51;8.95;;;4.75;;
28653;SDS011;24320;56.980;24.336;2022-11-20T07:40:18;9.02;;;4.55;;
28653;SDS011;24320;56.980;24.336;2022-11-20T07:42:49;11.35;;;5.40;;
28653;SDS011;24320;56.980;24.336;2022-11-20T07:45:18;9.43;;;5.45;;
28653;SDS011;24320;56.980;24.336;2022-11-20T07:47:46;13.65;;;6.15;;
28653;SDS011;24320;56.980;24.336;2022-11-20T07:50:13;10.52;;;5.70;;
28653;SDS011;24320;56.980;24.336;2022-11-20T07:52:41;14.88;;;7.93;;
28653;SDS011;24320;56.980;24.336;2022-11-20T07:55:08;12.05;;;6.40;;
28653;SDS011;24320;56.980;24.336;2022-11-20T07:57:36;10.52;;;5.50;;
28653;SDS011;24320;56.980;24.336;2022-11-20T08:00:03;9.48;;;4.50;;
28653;SDS011;24320;56.980;24.336;2022-11-20T08:02:31;9.30;;;4.57;;
28653;SDS011;24320;56.980;24.336;2022-11-20T08:04:58;10.07;;;4.90;;
28653;SDS011;24320;56.980;24.336;2022-11-20T08:07:25;7.72;;;4.50;;
28653;SDS011;24320;56.980;24.336;2022-11-20T08:09:52;13.38;;;5.40;;
28653;SDS011;24320;56.980;24.336;2022-11-20T08:12:19;9.52;;;4.57;;
28653;SDS011;24320;56.980;24.336;2022-11-20T08:15:06;12.00;;;4.80;;
28653;SDS011;24320;56.980;24.336;2022-11-20T08:17:38;8.45;;;3.95;;
28653;SDS011;24320;56.980;24.336;2022-11-20T08:20:05;14.93;;;5.60;;
28653;SDS011;24320;56.980;24.336;2022-11-20T08:22:33;10.70;;;4.57;;
28653;SDS011;24320;56.980;24.336;2022-11-20T08:24:59;12.15;;;5.85;;
28653;SDS011;24320;56.980;24.336;2022-11-20T08:27:27;9.35;;;4.88;;
28653;SDS011;24320;56.980;24.336;2022-11-20T08:29:54;11.20;;;4.70;;
28653;SDS011;24320;56.980;24.336;2022-11-20T08:32:21;12.10;;;5.25;;
28653;SDS011;24320;56.980;24.336;2022-11-20T08:34:48;9.13;;;4.82;;
28653;SDS011;24320;56.980;24.336;2022-11-20T08:37:15;8.68;;;4.32;;
28653;SDS011;24320;56.980;24.336;2022-11-20T08:39:41;10.85;;;4.95;;
28653;SDS011;24320;56.980;24.336;2022-11-20T08:42:08;13.40;;;5.32;;
28653;SDS011;24320;56.980;24.336;2022-11-20T08:44:35;12.57;;;5.90;;
28653;SDS011;24320;56.980;24.336;2022-11-20T08:47:02;11.85;;;5.75;;
28653;SDS011;24320;56.980;24.336;2022-11-20T08:49:29;11.55;;;5.75;;
28653;SDS011;24320;56.980;24.336;2022-11-20T08:51:56;17.42;;;5.50;;
28653;SDS011;24320;56.980;24.336;2022-11-20T08:54:23;12.80;;;5.30;;
28653;SDS011;24320;56.980;24.336;2022-11-20T08:56:50;14.55;;;5.07;;
28653;SDS011;24320;56.980;24.336;2022-11-20T08:59:17;12.90;;;4.88;;
28653;SDS011;24320;56.980;24.336;2022-11-20T09:02:04;13.70;;;5.63;;
28653;SDS011;24320;56.980;24.336;2022-11-20T09:04:31;7.75;;;4.72;;
28653;SDS011;24320;56.980;24.336;2022-11-20T09:06:59;10.60;;;5.28;;
28653;SDS011;24320;56.980;24.336;2022-11-20T09:09:26;11.88;;;5.28;;
28653;SDS011;24320;56.980;24.336;2022-11-20T09:11:54;15.48;;;6.82;;
28653;SDS011;24320;56.980;24.336;2022-11-20T09:14:21;17.00;;;7.05;;
28653;SDS011;24320;56.980;24.336;2022-11-20T09:16:50;15.13;;;5.47;;
28653;SDS011;24320;56.980;24.336;2022-11-20T09:19:17;16.55;;;6.13;;
28653;SDS011;24320;56.980;24.336;2022-11-20T09:22:01;6.05;;;3.65;;
28653;SDS011;24320;56.980;24.336;2022-11-20T09:24:28;18.20;;;5.80;;
28653;SDS011;24320;56.980;24.336;2022-11-20T09:26:54;15.77;;;6.45;;
28653;SDS011;24320;56.980;24.336;2022-11-20T09:29:21;14.07;;;6.15;;
28653;SDS011;24320;56.980;24.336;2022-11-20T09:31:49;12.88;;;6.35;;
28653;SDS011;24320;56.980;24.336;2022-11-20T10:32:18;14.60;;;6.10;;
28653;SDS011;24320;56.980;24.336;2022-11-20T10:38:04;10.27;;;5.13;;
28653;SDS011;24320;56.980;24.336;2022-11-20T10:40:39;11.70;;;5.95;;
28653;SDS011;24320;56.980;24.336;2022-11-20T10:43:14;7.90;;;3.60;;
28653;SDS011;24320;56.980;24.336;2022-11-20T10:45:48;14.73;;;7.07;;
28653;SDS011;24320;56.980;24.336;2022-11-20T10:48:25;13.70;;;5.55;;
28653;SDS011;24320;56.980;24.336;2022-11-20T10:56:41;19.17;;;7.82;;
28653;SDS011;24320;56.980;24.336;2022-11-20T11:07:39;8.13;;;4.68;;
28653;SDS011;24320;56.980;24.336;2022-11-20T11:12:43;15.43;;;7.20;;
28653;SDS011;24320;56.980;24.336;2022-11-20T11:15:14;17.48;;;8.25;;
28653;SDS011;24320;56.980;24.336;2022-11-20T11:18:01;17.08;;;7.65;;
28653;SDS011;24320;56.980;24.336;2022-11-20T11:20:28;16.48;;;8.43;;
28653;SDS011;24320;56.980;24.336;2022-11-20T11:22:57;11.60;;;6.50;;
28653;SDS011;24320;56.980;24.336;2022-11-20T11:25:29;16.02;;;7.10;;
28653;SDS011;24320;56.980;24.336;2022-11-20T11:28:21;22.02;;;8.63;;
28653;SDS011;24320;56.980;24.336;2022-11-20T11:30:47;18.45;;;9.90;;
28653;SDS011;24320;56.980;24.336;2022-11-20T11:33:19;14.20;;;6.65;;
28653;SDS011;24320;56.980;24.336;2022-11-20T11:35:51;24.48;;;11.40;;
28653;SDS011;24320;56.980;24.336;2022-11-20T11:43:35;19.17;;;6.13;;
28653;SDS011;24320;56.980;24.336;2022-11-20T11:46:27;11.10;;;5.93;;
28653;SDS011;24320;56.980;24.336;2022-11-20T12:00:17;14.27;;;6.22;;
28653;SDS011;24320;56.980;24.336;2022-11-20T12:05:16;13.73;;;6.38;;
28653;SDS011;24320;56.980;24.336;2022-11-20T12:08:36;17.80;;;7.40;;
28653;SDS011;24320;56.980;24.336;2022-11-20T12:11:05;17.48;;;6.72;;
28653;SDS011;24320;56.980;24.336;2022-11-20T12:13:44;11.57;;;6.28;;
28653;SDS011;24320;56.980;24.336;2022-11-20T12:16:13;9.50;;;5.65;;
28653;SDS011;24320;56.980;24.336;2022-11-20T12:18:41;17.00;;;7.18;;
28653;SDS011;24320;56.980;24.336;2022-11-20T12:21:19;13.98;;;6.28;;
28653;SDS011;24320;56.980;24.336;2022-11-20T12:29:27;16.42;;;6.20;;
28653;SDS011;24320;56.980;24.336;2022-11-20T12:37:40;17.08;;;7.30;;
28653;SDS011;24320;56.980;24.336;2022-11-20T12:43:27;14.75;;;6.25;;
28653;SDS011;24320;56.980;24.336;2022-11-20T13:07:42;11.93;;;5.95;;
28653;SDS011;24320;56.980;24.336;2022-11-20T13:10:15;13.57;;;6.50;;
28653;SDS011;24320;56.980;24.336;2022-11-20T13:12:51;14.45;;;6.40;;
28653;SDS011;24320;56.980;24.336;2022-11-20T13:15:39;14.88;;;6.43;;
28653;SDS011;24320;56.980;24.336;2022-11-20T13:18:18;8.88;;;2.92;;
28653;SDS011;24320;56.980;24.336;2022-11-20T13:20:45;10.05;;;5.05;;
28653;SDS011;24320;56.980;24.336;2022-11-20T13:23:24;14.95;;;5.18;;
28653;SDS011;24320;56.980;24.336;2022-11-20T13:31:43;7.00;;;3.93;;
28653;SDS011;24320;56.980;24.336;2022-11-20T13:34:13;10.35;;;4.65;;
28653;SDS011;24320;56.980;24.336;2022-11-20T13:36:56;12.73;;;5.32;;
28653;SDS011;24320;56.980;24.336;2022-11-20T13:39:27;7.53;;;4.50;;
28653;SDS011;24320;56.980;24.336;2022-11-20T13:42:01;8.00;;;3.90;;
28653;SDS011;24320;56.980;24.336;2022-11-20T13:44:53;6.15;;;2.05;;
28653;SDS011;24320;56.980;24.336;2022-11-20T13:47:25;11.35;;;4.47;;
28653;SDS011;24320;56.980;24.336;2022-11-20T13:49:54;10.15;;;4.53;;
28653;SDS011;24320;56.980;24.336;2022-11-20T14:00:31;7.05;;;3.42;;
28653;SDS011;24320;56.980;24.336;2022-11-20T14:05:51;11.82;;;5.63;;
28653;SDS011;24320;56.980;24.336;2022-11-20T14:08:27;6.70;;;3.05;;
28653;SDS011;24320;56.980;24.336;2022-11-20T14:11:05;5.68;;;3.22;;
28653;SDS011;24320;56.980;24.336;2022-11-20T14:13:52;7.53;;;3.92;;
28653;SDS011;24320;56.980;24.336;2022-11-20T14:16:23;2.80;;;2.55;;
28653;SDS011;24320;56.980;24.336;2022-11-20T14:18:50;11.45;;;4.32;;
28653;SDS011;24320;56.980;24.336;2022-11-20T14:21:24;7.78;;;4.25;;
28653;SDS011;24320;56.980;24.336;2022-11-20T14:24:17;7.40;;;4.15;;
28653;SDS011;24320;56.980;24.336;2022-11-20T14:26:45;9.88;;;5.53;;
28653;SDS011;24320;56.980;24.336;2022-11-20T14:29:13;13.10;;;4.28;;
28653;SDS011;24320;56.980;24.336;2022-11-20T14:31:52;6.13;;;3.08;;
28653;SDS011;24320;56.980;24.336;2022-11-20T14:34:23;10.88;;;5.00;;
28653;SDS011;24320;56.980;24.336;2022-11-20T14:36:55;8.15;;;4.20;;
28653;SDS011;24320;56.980;24.336;2022-11-20T14:39:35;9.73;;;5.18;;
28653;SDS011;24320;56.980;24.336;2022-11-20T14:42:11;5.07;;;2.92;;
28653;SDS011;24320;56.980;24.336;2022-11-20T14:44:44;11.70;;;5.53;;
28653;SDS011;24320;56.980;24.336;2022-11-20T14:47:12;11.13;;;5.30;;
28653;SDS011;24320;56.980;24.336;2022-11-20T14:49:43;2.80;;;2.10;;
28653;SDS011;24320;56.980;24.336;2022-11-20T14:54:43;9.63;;;5.78;;
28653;SDS011;24320;56.980;24.336;2022-11-20T14:57:25;11.73;;;4.05;;
28653;SDS011;24320;56.980;24.336;2022-11-20T15:00:18;9.70;;;4.65;;
28653;SDS011;24320;56.980;24.336;2022-11-20T15:02:47;10.05;;;4.22;;
28653;SDS011;24320;56.980;24.336;2022-11-20T15:05:16;6.93;;;3.58;;
28653;SDS011;24320;56.980;24.336;2022-11-20T15:07:46;9.43;;;5.25;;
28653;SDS011;24320;56.980;24.336;2022-11-20T15:10:22;9.60;;;3.45;;
28653;SDS011;24320;56.980;24.336;2022-11-20T15:13:01;13.75;;;5.15;;
28653;SDS011;24320;56.980;24.336;2022-11-20T15:15:47;9.07;;;4.78;;
28653;SDS011;24320;56.980;24.336;2022-11-20T15:18:22;11.00;;;4.53;;
28653;SDS011;24320;56.980;24.336;2022-11-20T15:20:53;4.78;;;2.80;;
28653;SDS011;24320;56.980;24.336;2022-11-20T15:23:23;11.75;;;3.83;;
28653;SDS011;24320;56.980;24.336;2022-11-20T15:25:51;13.32;;;5.10;;
28653;SDS011;24320;56.980;24.336;2022-11-20T15:28:20;9.65;;;4.63;;
28653;SDS011;24320;56.980;24.336;2022-11-20T15:30:57;6.63;;;4.20;;
28653;SDS011;24320;56.980;24.336;2022-11-20T15:33:25;8.52;;;3.10;;
28653;SDS011;24320;56.980;24.336;2022-11-20T15:35:52;9.32;;;4.47;;
28653;SDS011;24320;56.980;24.336;2022-11-20T15:38:19;4.93;;;3.03;;
28653;SDS011;24320;56.980;24.336;2022-11-20T15:40:46;3.47;;;2.30;;
28653;SDS011;24320;56.980;24.336;2022-11-20T15:43:13;4.30;;;2.90;;
28653;SDS011;24320;56.980;24.336;2022-11-20T15:45:47;3.05;;;2.33;;
28653;SDS011;24320;56.980;24.336;2022-11-20T15:50:49;11.85;;;5.00;;
28653;SDS011;24320;56.980;24.336;2022-11-20T15:53:24;12.77;;;4.65;;
28653;SDS011;24320;56.980;24.336;2022-11-20T15:55:51;7.72;;;3.13;;
28653;SDS011;24320;56.980;24.336;2022-11-20T15:58:18;1.73;;;1.55;;
28653;SDS011;24320;56.980;24.336;2022-11-20T16:00:45;8.23;;;3.40;;
28653;SDS011;24320;56.980;24.336;2022-11-20T16:03:13;6.18;;;3.97;;
28653;SDS011;24320;56.980;24.336;2022-11-20T16:05:41;2.97;;;2.40;;
28653;SDS011;24320;56.980;24.336;2022-11-20T16:08:09;1.70;;;1.50;;
28653;SDS011;24320;56.980;24.336;2022-11-20T16:10:37;7.20;;;4.07;;
28653;SDS011;24320;56.980;24.336;2022-11-20T16:13:05;6.18;;;3.13;;
28653;SDS011;24320;56.980;24.336;2022-11-20T16:15:57;9.40;;;4.57;;
28653;SDS011;24320;56.980;24.336;2022-11-20T16:18:30;7.35;;;3.70;;
28653;SDS011;24320;56.980;24.336;2022-11-20T16:20:58;2.75;;;2.25;;
28653;SDS011;24320;56.980;24.336;2022-11-20T16:23:25;3.22;;;2.22;;
28653;SDS011;24320;56.980;24.336;2022-11-20T16:25:52;7.13;;;3.22;;
28653;SDS011;24320;56.980;24.336;2022-11-20T16:28:19;2.97;;;1.85;;
28653;SDS011;24320;56.980;24.336;2022-11-20T16:30:46;5.57;;;3.22;;
28653;SDS011;24320;56.980;24.336;2022-11-20T16:33:16;6.47;;;3.50;;
28653;SDS011;24320;56.980;24.336;2022-11-20T16:35:43;4.03;;;3.42;;
28653;SDS011;24320;56.980;24.336;2022-11-20T16:38:11;6.53;;;2.67;;
28653;SDS011;24320;56.980;24.336;2022-11-20T16:40:38;4.28;;;1.85;;
28653;SDS011;24320;56.980;24.336;2022-11-20T16:43:09;9.75;;;4.57;;
28653;SDS011;24320;56.980;24.336;2022-11-20T16:45:41;5.43;;;1.70;;
28653;SDS011;24320;56.980;24.336;2022-11-20T16:48:13;6.38;;;2.88;;
28653;SDS011;24320;56.980;24.336;2022-11-20T16:50:45;6.13;;;3.10;;
28653;SDS011;24320;56.980;24.336;2022-11-20T16:53:15;6.45;;;3.58;;
28653;SDS011;24320;56.980;24.336;2022-11-20T16:55:43;1.40;;;1.30;;
28653;SDS011;24320;56.980;24.336;2022-11-20T16:58:10;8.77;;;5.35;;
28653;SDS011;24320;56.980;24.336;2022-11-20T17:00:40;5.43;;;2.72;;
28653;SDS011;24320;56.980;24.336;2022-11-20T17:03:15;3.80;;;2.58;;
28653;SDS011;24320;56.980;24.336;2022-11-20T17:05:43;2.38;;;1.48;;
28653;SDS011;24320;56.980;24.336;2022-11-20T17:08:10;7.85;;;4.22;;
28653;SDS011;24320;56.980;24.336;2022-11-20T17:10:37;8.45;;;4.35;;
28653;SDS011;24320;56.980;24.336;2022-11-20T17:13:03;7.63;;;4.10;;
28653;SDS011;24320;56.980;24.336;2022-11-20T17:15:30;5.22;;;2.28;;
28653;SDS011;24320;56.980;24.336;2022-11-20T17:17:57;6.28;;;2.70;;
28653;SDS011;24320;56.980;24.336;2022-11-20T17:20:24;7.78;;;4.32;;
28653;SDS011;24320;56.980;24.336;2022-11-20T17:22:51;3.30;;;2.05;;
28653;SDS011;24320;56.980;24.336;2022-11-20T17:25:18;4.40;;;1.83;;
28653;SDS011;24320;56.980;24.336;2022-11-20T17:27:45;5.93;;;3.05;;
28653;SDS011;24320;56.980;24.336;2022-11-20T17:30:12;7.80;;;3.50;;
28653;SDS011;24320;56.980;24.336;2022-11-20T17:32:39;3.53;;;2.15;;
28653;SDS011;24320;56.980;24.336;2022-11-20T17:35:10;7.35;;;2.83;;
28653;SDS011;24320;56.980;24.336;2022-11-20T17:37:37;6.75;;;2.92;;